createdAt,value
2018-09-26T00:01:05.522Z,696.60
2018-09-26T00:03:07.768Z,682.20
2018-09-26T00:05:10.046Z,687.55
2018-09-26T00:07:12.292Z,676.92
2018-09-26T00:09:14.588Z,672.70
2018-09-26T00:11:16.842Z,667.63
2018-09-26T00:13:19.136Z,666.30
2018-09-26T00:15:21.386Z,656.05
2018-09-26T00:17:23.633Z,657.83
2018-09-26T00:19:25.947Z,651.02
2018-09-26T00:21:28.584Z,644.70
2018-09-26T00:23:30.820Z,640.70
2018-09-26T00:25:33.100Z,635.87
2018-09-26T00:27:35.355Z,638.08
2018-09-26T00:29:37.679Z,630.80
2018-09-26T00:31:39.932Z,618.73
2018-09-26T00:33:42.231Z,617.42
2018-09-26T00:35:44.548Z,624.10
2018-09-26T00:37:46.750Z,610.97
2018-09-26T00:39:49.039Z,614.55
2018-09-26T00:41:51.269Z,600.17
2018-09-26T00:43:53.571Z,586.75
2018-09-26T00:45:55.853Z,588.52
2018-09-26T00:47:58.107Z,579.58
2018-09-26T00:50:00.388Z,590.67
2018-09-26T00:52:02.654Z,584.22
2018-09-26T00:54:04.940Z,573.85
2018-09-26T00:56:07.224Z,572.13
2018-09-26T00:58:09.512Z,573.90
2018-09-26T01:00:11.756Z,567.50
2018-09-26T01:02:14.043Z,562.48
2018-09-26T01:04:16.300Z,553.75
2018-09-26T01:06:18.570Z,560.45
2018-09-26T01:08:20.792Z,551.73
2018-09-26T01:10:23.063Z,552.92
2018-09-26T01:12:25.342Z,536.12
2018-09-26T01:14:27.590Z,523.42
2018-09-26T01:16:29.867Z,540.40
2018-09-26T01:18:32.158Z,516.42
2018-09-26T01:20:34.432Z,520.17
2018-09-26T01:22:36.728Z,519.05
2018-09-26T01:24:38.992Z,519.83
2018-09-26T01:26:41.280Z,515.12
2018-09-26T01:28:43.564Z,511.15
2018-09-26T01:30:45.803Z,508.35
2018-09-26T01:32:48.050Z,514.30
2018-09-26T01:34:50.332Z,501.35
2018-09-26T01:36:52.584Z,504.25
2018-09-26T01:38:54.826Z,494.02
2018-09-26T01:40:57.097Z,489.73
2018-09-26T01:42:59.339Z,491.92
2018-09-26T01:45:01.651Z,496.72
2018-09-26T01:47:03.909Z,482.47
2018-09-26T01:49:06.181Z,489.20
2018-09-26T01:51:08.430Z,481.65
2018-09-26T01:53:10.667Z,487.18
2018-09-26T01:55:12.962Z,482.25
2018-09-26T01:57:15.210Z,479.18
2018-09-26T01:59:17.485Z,475.92
2018-09-26T02:01:19.748Z,473.40
2018-09-26T02:03:22.049Z,475.65
2018-09-26T02:05:24.323Z,465.10
2018-09-26T02:07:26.595Z,464.93
2018-09-26T02:09:28.865Z,465.43
2018-09-26T02:11:31.146Z,461.38
2018-09-26T02:13:33.387Z,454.83
2018-09-26T02:15:35.639Z,455.67
2018-09-26T02:17:37.909Z,452.30
2018-09-26T02:19:40.191Z,444.97
2018-09-26T02:21:42.477Z,448.62
2018-09-26T02:23:44.807Z,442.50
2018-09-26T02:25:47.368Z,444.25
2018-09-26T02:27:49.653Z,440.23
2018-09-26T02:29:51.891Z,438.63
2018-09-26T02:31:54.180Z,434.25
2018-09-26T02:33:56.471Z,430.73
2018-09-26T02:35:58.731Z,441.12
2018-09-26T02:38:01.050Z,433.62
2018-09-26T02:40:03.287Z,429.98
2018-09-26T02:42:05.537Z,423.10
2018-09-26T02:44:07.832Z,423.97
2018-09-26T02:46:10.089Z,417.72
2018-09-26T02:48:12.344Z,413.20
2018-09-26T02:50:14.631Z,416.35
2018-09-26T02:52:16.883Z,413.35
2018-09-26T02:54:19.148Z,412.72
2018-09-26T02:56:21.405Z,411.50
2018-09-26T02:58:23.664Z,412.68
2018-09-26T03:00:25.969Z,408.98
2018-09-26T03:02:28.204Z,404.65
2018-09-26T03:04:30.496Z,404.35
2018-09-26T03:06:32.751Z,396.95
2018-09-26T03:08:35.053Z,396.32
2018-09-26T03:10:37.314Z,396.57
2018-09-26T03:12:39.583Z,387.93
2018-09-26T03:14:41.875Z,388.82
2018-09-26T03:16:44.129Z,390.55
2018-09-26T03:18:46.392Z,383.75
2018-09-26T03:20:48.682Z,381.38
2018-09-26T03:22:50.921Z,383.00
2018-09-26T03:24:53.159Z,381.57
2018-09-26T03:26:55.447Z,374.45
2018-09-26T03:28:57.699Z,384.13
2018-09-26T03:30:59.983Z,359.32
2018-09-26T03:33:02.224Z,365.00
2018-09-26T03:35:04.455Z,370.02
2018-09-26T03:37:06.754Z,366.00
2018-09-26T03:39:09.052Z,356.50
2018-09-26T03:41:11.324Z,358.02
2018-09-26T03:43:13.580Z,351.23
2018-09-26T03:45:15.868Z,353.25
2018-09-26T03:47:18.116Z,351.42
2018-09-26T03:49:20.400Z,346.13
2018-09-26T03:51:22.665Z,339.30
2018-09-26T03:53:24.962Z,330.87
2018-09-26T03:55:27.174Z,340.82
2018-09-26T03:57:29.485Z,339.93
2018-09-26T03:59:31.735Z,332.70
2018-09-26T04:01:33.994Z,319.15
2018-09-26T04:03:36.292Z,332.50
2018-09-26T04:05:38.561Z,327.70
2018-09-26T04:07:40.856Z,318.27
2018-09-26T04:09:43.101Z,320.10
2018-09-26T04:11:45.390Z,315.45
2018-09-26T04:13:47.636Z,312.65
2018-09-26T04:15:49.950Z,312.52
2018-09-26T04:17:52.552Z,311.62
2018-09-26T04:19:54.796Z,304.40
2018-09-26T04:21:57.040Z,304.43
2018-09-26T04:23:59.341Z,302.02
2018-09-26T04:26:01.598Z,297.70
2018-09-26T04:28:03.882Z,298.45
2018-09-26T04:30:06.137Z,288.40
2018-09-26T04:32:08.423Z,293.25
2018-09-26T04:34:10.680Z,287.90
2018-09-26T04:36:12.918Z,285.75
2018-09-26T04:38:15.180Z,281.47
2018-09-26T04:40:17.480Z,282.75
2018-09-26T04:42:19.764Z,282.77
2018-09-26T04:44:22.011Z,282.53
2018-09-26T04:46:24.267Z,276.32
2018-09-26T04:48:26.544Z,277.07
2018-09-26T04:50:28.833Z,270.77
2018-09-26T04:52:31.089Z,273.82
2018-09-26T04:54:33.331Z,266.05
2018-09-26T04:56:35.612Z,264.93
2018-09-26T04:58:37.904Z,260.40
2018-09-26T05:00:40.156Z,264.08
2018-09-26T05:02:42.459Z,263.68
2018-09-26T05:04:44.708Z,256.68
2018-09-26T05:06:46.930Z,254.53
2018-09-26T05:08:49.258Z,251.32
2018-09-26T05:10:51.484Z,251.70
2018-09-26T05:12:53.724Z,251.60
2018-09-26T05:14:56.020Z,248.25
2018-09-26T05:16:58.290Z,246.50
2018-09-26T05:19:00.537Z,235.40
2018-09-26T05:21:02.831Z,249.07
2018-09-26T05:23:05.111Z,236.43
2018-09-26T05:25:07.400Z,238.47
2018-09-26T05:27:09.666Z,231.05
2018-09-26T05:29:11.922Z,228.60
2018-09-26T05:31:14.230Z,230.43
2018-09-26T05:33:16.484Z,222.12
2018-09-26T05:35:18.732Z,219.13
2018-09-26T05:37:21.008Z,218.65
2018-09-26T05:39:23.416Z,218.63
2018-09-26T05:41:25.645Z,219.25
2018-09-26T05:43:27.924Z,221.22
2018-09-26T05:45:30.176Z,218.73
2018-09-26T05:47:32.447Z,220.42
2018-09-26T05:49:34.701Z,210.85
2018-09-26T05:51:36.973Z,217.25
2018-09-26T05:53:39.215Z,204.00
2018-09-26T05:55:41.515Z,213.30
2018-09-26T05:57:43.785Z,203.18
2018-09-26T05:59:46.065Z,200.28
2018-09-26T06:01:48.827Z,198.68
2018-09-26T06:03:51.096Z,198.45
2018-09-26T06:05:53.376Z,198.47
2018-09-26T06:07:55.629Z,192.13
2018-09-26T06:09:57.923Z,193.37
2018-09-26T06:12:00.211Z,193.30
2018-09-26T06:14:02.521Z,191.75
2018-09-26T06:16:04.807Z,187.75
2018-09-26T06:18:07.057Z,180.30
2018-09-26T06:20:09.341Z,181.35
2018-09-26T06:22:11.617Z,186.07
2018-09-26T06:24:13.894Z,175.75
2018-09-26T06:26:16.217Z,175.12
2018-09-26T06:28:18.506Z,174.90
2018-09-26T06:30:20.805Z,173.55
2018-09-26T06:32:23.087Z,166.35
2018-09-26T06:34:25.372Z,171.82
2018-09-26T06:36:27.652Z,167.37
2018-09-26T06:38:29.968Z,157.78
2018-09-26T06:40:32.687Z,163.07
2018-09-26T06:42:34.854Z,162.88
2018-09-26T06:44:37.134Z,166.55
2018-09-26T06:46:39.439Z,159.57
2018-09-26T06:48:41.722Z,162.30
2018-09-26T06:50:44.019Z,254.85
2018-09-26T06:52:46.265Z,496.20
2018-09-26T06:54:48.565Z,272.02
2018-09-26T06:56:50.868Z,237.53
2018-09-26T06:58:53.133Z,241.23
2018-09-26T07:00:55.423Z,237.68
2018-09-26T07:02:57.715Z,259.50
2018-09-26T07:04:59.991Z,293.45
2018-09-26T07:07:02.231Z,349.98
2018-09-26T07:09:04.515Z,380.30
2018-09-26T07:11:06.785Z,372.23
2018-09-26T07:13:09.084Z,383.65
2018-09-26T07:15:11.333Z,438.05
2018-09-26T07:17:13.636Z,415.95
2018-09-26T07:19:15.933Z,393.30
2018-09-26T07:21:18.173Z,400.22
2018-09-26T07:23:20.479Z,441.38
2018-09-26T07:25:22.736Z,453.55
2018-09-26T07:27:25.043Z,440.35
2018-09-26T07:29:27.291Z,443.45
2018-09-26T07:31:29.607Z,475.85
2018-09-26T07:33:31.886Z,485.90
2018-09-26T07:35:34.137Z,485.73
2018-09-26T07:37:36.373Z,491.15
2018-09-26T07:39:38.651Z,477.05
2018-09-26T07:41:40.916Z,497.57
2018-09-26T07:43:43.567Z,477.88
2018-09-26T07:45:45.941Z,465.47
2018-09-26T07:47:48.086Z,465.10
2018-09-26T07:49:50.400Z,466.48
2018-09-26T07:51:52.664Z,455.95
2018-09-26T07:53:54.979Z,481.43
2018-09-26T07:55:57.257Z,481.05
2018-09-26T07:57:59.541Z,512.55
2018-09-26T08:00:01.853Z,498.85
2018-09-26T08:02:04.098Z,503.40
2018-09-26T08:04:06.383Z,514.65
2018-09-26T08:06:08.611Z,536.50
2018-09-26T08:08:10.901Z,532.62
2018-09-26T08:10:13.182Z,545.73
2018-09-26T08:12:15.485Z,549.10
2018-09-26T08:14:17.731Z,554.30
2018-09-26T08:16:20.124Z,544.35
2018-09-26T08:18:22.465Z,533.33
2018-09-26T08:20:24.671Z,525.02
2018-09-26T08:22:26.975Z,528.45
2018-09-26T08:24:29.261Z,560.70
2018-09-26T08:26:31.514Z,578.00
2018-09-26T08:28:33.784Z,588.48
2018-09-26T08:30:36.043Z,581.30
2018-09-26T08:32:38.340Z,594.92
2018-09-26T08:34:40.619Z,587.02
2018-09-26T08:36:42.890Z,620.27
2018-09-26T08:38:45.166Z,645.52
2018-09-26T08:40:47.416Z,639.70
2018-09-26T08:42:49.666Z,634.70
2018-09-26T08:44:51.952Z,624.38
2018-09-26T08:46:54.380Z,643.33
2018-09-26T08:48:56.940Z,655.83
2018-09-26T08:50:59.185Z,702.15
2018-09-26T08:53:01.502Z,683.20
2018-09-26T08:55:03.752Z,671.53
2018-09-26T08:57:06.382Z,668.23
2018-09-26T08:59:08.653Z,651.08
2018-09-26T09:01:10.935Z,684.13
2018-09-26T09:03:13.234Z,677.35
2018-09-26T09:05:15.535Z,697.13
2018-09-26T09:07:17.790Z,721.22
2018-09-26T09:09:20.132Z,757.95
2018-09-26T09:11:22.378Z,760.58
2018-09-26T09:13:24.625Z,780.52
2018-09-26T09:15:26.915Z,755.85
2018-09-26T09:17:29.164Z,545.70
2018-09-26T09:19:31.435Z,577.15
2018-09-26T09:21:33.731Z,649.35
2018-09-26T09:23:35.984Z,653.95
2018-09-26T09:25:38.271Z,635.23
2018-09-26T09:27:40.595Z,654.27
2018-09-26T09:29:42.878Z,619.73
2018-09-26T09:31:45.169Z,587.10
2018-09-26T09:33:47.425Z,563.72
2018-09-26T09:35:49.674Z,567.98
2018-09-26T09:37:51.948Z,596.50
2018-09-26T09:39:54.180Z,609.22
2018-09-26T09:41:56.470Z,655.80
2018-09-26T09:43:58.739Z,642.80
2018-09-26T09:46:01.018Z,649.30
2018-09-26T09:48:03.327Z,660.10
2018-09-26T09:50:05.597Z,656.33
2018-09-26T09:52:07.847Z,651.48
2018-09-26T09:54:10.161Z,640.17
2018-09-26T09:56:12.488Z,638.83
2018-09-26T09:58:14.696Z,634.70
2018-09-26T10:00:17.010Z,642.65
2018-09-26T10:02:19.297Z,650.87
2018-09-26T10:04:21.531Z,661.50
2018-09-26T10:06:23.823Z,682.47
2018-09-26T10:08:26.185Z,682.83
2018-09-26T10:10:28.894Z,695.57
2018-09-26T10:12:31.211Z,676.42
2018-09-26T10:14:33.464Z,688.35
2018-09-26T10:16:35.773Z,692.20
2018-09-26T10:18:38.051Z,713.12
2018-09-26T10:20:40.305Z,730.25
2018-09-26T10:22:42.592Z,762.33
2018-09-26T10:24:44.902Z,773.92
2018-09-26T10:26:47.136Z,727.62
2018-09-26T10:28:49.382Z,749.35
2018-09-26T10:30:51.687Z,717.15
2018-09-26T10:32:53.965Z,635.33
2018-09-26T10:34:56.242Z,687.98
2018-09-26T10:36:58.482Z,685.30
2018-09-26T10:39:00.735Z,680.15
2018-09-26T10:41:03.018Z,886.33
2018-09-26T10:43:05.317Z,663.42
2018-09-26T10:45:07.613Z,681.02
2018-09-26T10:47:09.877Z,662.62
2018-09-26T10:49:12.119Z,662.98
2018-09-26T10:51:14.415Z,613.48
2018-09-26T10:53:16.658Z,620.35
2018-09-26T10:55:18.963Z,609.87
2018-09-26T10:57:21.216Z,598.45
2018-09-26T10:59:23.512Z,592.63
2018-09-26T11:01:25.751Z,609.58
2018-09-26T11:03:28.023Z,603.95
2018-09-26T11:05:30.279Z,589.70
2018-09-26T11:07:32.575Z,580.00
2018-09-26T11:09:34.826Z,604.40
2018-09-26T11:11:37.085Z,606.92
2018-09-26T11:13:39.383Z,939.20
2018-09-26T11:15:41.626Z,699.10
2018-09-26T11:17:43.877Z,617.75
2018-09-26T11:19:46.169Z,629.58
2018-09-26T11:21:48.429Z,623.58
2018-09-26T11:23:50.679Z,602.23
2018-09-26T11:25:52.967Z,635.52
2018-09-26T11:27:55.219Z,609.73
2018-09-26T11:29:57.467Z,573.58
2018-09-26T11:31:59.771Z,608.10
2018-09-26T11:34:02.053Z,707.95
2018-09-26T11:36:04.353Z,674.00
2018-09-26T11:38:06.604Z,608.35
2018-09-26T11:40:08.854Z,594.30
2018-09-26T11:42:11.117Z,588.08
2018-09-26T11:44:13.436Z,601.15
2018-09-26T11:46:15.706Z,622.77
2018-09-26T11:48:17.935Z,607.40
2018-09-26T11:50:20.224Z,586.70
2018-09-26T11:52:22.540Z,605.90
2018-09-26T11:54:24.759Z,598.05
2018-09-26T11:56:27.044Z,593.48
2018-09-26T11:58:29.305Z,588.00
2018-09-26T12:00:31.561Z,588.50
2018-09-26T12:02:33.943Z,599.70
2018-09-26T12:04:36.112Z,591.40
2018-09-26T12:06:38.352Z,604.42
2018-09-26T12:08:40.673Z,581.73
2018-09-26T12:10:42.929Z,590.45
2018-09-26T12:12:45.207Z,581.60
2018-09-26T12:14:47.460Z,572.65
2018-09-26T12:16:49.758Z,557.17
2018-09-26T12:18:52.059Z,570.57
2018-09-26T12:20:54.343Z,552.55
2018-09-26T12:22:56.603Z,544.55
2018-09-26T12:24:59.543Z,543.13
2018-09-26T12:27:01.842Z,532.42
2018-09-26T12:29:04.086Z,960.43
2018-09-26T12:31:06.367Z,567.60
2018-09-26T12:33:08.655Z,573.58
2018-09-26T12:35:10.932Z,567.65
2018-09-26T12:37:13.196Z,594.58
2018-09-26T12:39:15.479Z,582.83
2018-09-26T12:41:17.748Z,566.30
2018-09-26T12:43:20.009Z,570.02
2018-09-26T12:45:22.297Z,578.48
2018-09-26T12:47:24.600Z,577.47
2018-09-26T12:49:26.817Z,598.13
2018-09-26T12:51:30.002Z,613.72
2018-09-26T12:53:32.348Z,637.70
2018-09-26T12:55:34.587Z,629.25
2018-09-26T12:57:36.831Z,659.52
2018-09-26T12:59:39.133Z,670.65
2018-09-26T13:01:41.457Z,687.55
2018-09-26T13:03:43.694Z,688.70
2018-09-26T13:05:46.047Z,688.75
2018-09-26T13:07:48.244Z,721.37
2018-09-26T13:09:50.493Z,715.17
2018-09-26T13:11:52.782Z,729.02
2018-09-26T13:13:55.351Z,722.37
2018-09-26T13:15:57.572Z,697.77
2018-09-26T13:17:59.828Z,708.00
2018-09-26T13:20:02.125Z,730.40
2018-09-26T13:22:04.471Z,768.77
2018-09-26T13:24:06.727Z,780.85
2018-09-26T13:26:09.059Z,793.73
2018-09-26T13:28:11.340Z,793.33
2018-09-26T13:30:14.015Z,765.30
2018-09-26T13:32:16.324Z,786.25
2018-09-26T13:34:18.530Z,776.13
2018-09-26T13:36:20.781Z,731.83
2018-09-26T13:38:23.149Z,751.52
2018-09-26T13:40:25.370Z,720.30
2018-09-26T13:42:27.657Z,808.02
2018-09-26T13:44:29.892Z,832.65
2018-09-26T13:46:32.271Z,830.33
2018-09-26T13:48:34.464Z,820.50
2018-09-26T13:50:36.762Z,837.85
2018-09-26T13:52:39.041Z,844.45
2018-09-26T13:54:41.284Z,857.65
2018-09-26T13:56:43.560Z,849.62
2018-09-26T13:58:45.838Z,824.95
2018-09-26T14:00:48.114Z,837.35
2018-09-26T14:02:50.370Z,843.90
2018-09-26T14:04:52.632Z,849.15
2018-09-26T14:06:54.908Z,830.60
2018-09-26T14:08:57.181Z,842.95
2018-09-26T14:10:59.517Z,830.15
2018-09-26T14:13:01.746Z,826.28
2018-09-26T14:15:04.019Z,808.07
2018-09-26T14:17:06.286Z,763.55
2018-09-26T14:19:08.556Z,775.85
2018-09-26T14:21:10.799Z,811.60
2018-09-26T14:23:13.176Z,826.75
2018-09-26T14:25:15.390Z,816.85
2018-09-26T14:27:17.634Z,806.20
2018-09-26T14:29:19.970Z,828.65
2018-09-26T14:31:22.186Z,871.23
2018-09-26T14:33:24.404Z,855.27
2018-09-26T14:35:26.763Z,865.98
2018-09-26T14:37:29.006Z,889.80
2018-09-26T14:39:31.391Z,881.20
2018-09-26T14:41:33.555Z,873.72
2018-09-26T14:43:35.881Z,872.93
2018-09-26T14:45:38.132Z,858.87
2018-09-26T14:47:40.419Z,845.42
2018-09-26T14:49:42.662Z,891.83
2018-09-26T14:51:44.945Z,899.75
2018-09-26T14:53:47.221Z,919.70
2018-09-26T14:55:49.475Z,920.48
2018-09-26T14:57:51.777Z,918.07
2018-09-26T14:59:54.023Z,909.47
2018-09-26T15:01:56.263Z,913.57
2018-09-26T15:03:58.597Z,893.43
2018-09-26T15:06:00.809Z,893.15
2018-09-26T15:08:03.088Z,892.33
2018-09-26T15:10:05.340Z,673.47
2018-09-26T15:12:07.592Z,550.55
2018-09-26T15:14:09.893Z,464.65
2018-09-26T15:16:12.170Z,513.60
2018-09-26T15:18:14.443Z,691.17
2018-09-26T15:20:16.762Z,811.10
2018-09-26T15:22:19.010Z,792.63
2018-09-26T15:24:21.740Z,784.67
2018-09-26T15:26:23.979Z,762.17
2018-09-26T15:28:26.201Z,771.35
2018-09-26T15:30:28.658Z,744.75
2018-09-26T15:32:30.930Z,772.65
2018-09-26T15:34:33.165Z,752.30
2018-09-26T15:36:35.793Z,754.98
2018-09-26T15:38:38.052Z,747.90
2018-09-26T15:40:40.439Z,519.30
2018-09-26T15:42:42.617Z,491.10
2018-09-26T15:44:44.895Z,278.25
2018-09-26T15:46:47.195Z,209.95
2018-09-26T15:48:49.465Z,234.22
2018-09-26T15:50:51.719Z,317.25
2018-09-26T15:52:54.017Z,158.95
2018-09-26T15:54:56.267Z,189.40
2018-09-26T15:56:58.517Z,139.03
2018-09-26T15:59:00.810Z,160.35
2018-09-26T16:01:03.053Z,149.93
2018-09-26T16:03:05.375Z,345.02
2018-09-26T16:05:07.592Z,497.10
2018-09-26T16:07:09.839Z,529.65
2018-09-26T16:09:12.105Z,510.70
2018-09-26T16:11:14.339Z,479.85
2018-09-26T16:13:16.631Z,459.60
2018-09-26T16:15:18.925Z,453.12
2018-09-26T16:17:21.208Z,447.00
2018-09-26T16:19:23.489Z,450.50
2018-09-26T16:21:25.733Z,450.57
2018-09-26T16:23:27.996Z,456.10
2018-09-26T16:25:30.369Z,452.05
2018-09-26T16:27:32.546Z,453.77
2018-09-26T16:29:34.784Z,452.28
2018-09-26T16:31:37.085Z,445.57
2018-09-26T16:33:39.367Z,441.42
2018-09-26T16:35:41.608Z,457.32
2018-09-26T16:37:43.855Z,445.32
2018-09-26T16:39:46.127Z,450.85
2018-09-26T16:41:48.373Z,448.78
2018-09-26T16:43:50.681Z,439.57
2018-09-26T16:45:52.934Z,456.35
2018-09-26T16:47:55.205Z,435.93
2018-09-26T16:49:57.467Z,440.17
2018-09-26T16:51:59.735Z,434.13
2018-09-26T16:54:02.029Z,435.55
2018-09-26T16:56:04.340Z,434.18
2018-09-26T16:58:06.979Z,436.70
2018-09-26T17:00:09.252Z,430.27
2018-09-26T17:02:11.569Z,418.35
2018-09-26T17:04:14.382Z,436.15
2018-09-26T17:06:16.689Z,426.82
2018-09-26T17:08:18.977Z,427.60
2018-09-26T17:10:21.243Z,425.02
2018-09-26T17:12:24.012Z,421.90
2018-09-26T17:14:26.258Z,418.13
2018-09-26T17:16:28.514Z,413.12
2018-09-26T17:18:30.761Z,420.05
2018-09-26T17:20:33.035Z,411.10
2018-09-26T17:22:35.565Z,407.62
2018-09-26T17:24:37.849Z,404.27
2018-09-26T17:26:40.114Z,410.00
2018-09-26T17:28:42.488Z,406.43
2018-09-26T17:30:44.668Z,405.18
2018-09-26T17:32:46.952Z,408.83
2018-09-26T17:34:49.258Z,397.72
2018-09-26T17:36:51.483Z,393.52
2018-09-26T17:38:53.771Z,392.02
2018-09-26T17:40:56.005Z,399.52
2018-09-26T17:42:58.288Z,402.10
2018-09-26T17:45:00.548Z,383.20
2018-09-26T17:47:02.831Z,394.70
2018-09-26T17:49:05.094Z,397.20
2018-09-26T17:51:07.375Z,395.77
2018-09-26T17:53:09.631Z,383.10
2018-09-26T17:55:11.910Z,385.27
2018-09-26T17:57:14.164Z,388.62
2018-09-26T17:59:16.464Z,366.65
2018-09-26T18:01:18.782Z,383.87
2018-09-26T18:03:20.991Z,380.05
2018-09-26T18:05:23.308Z,367.68
2018-09-26T18:07:25.564Z,371.73
2018-09-26T18:09:27.862Z,362.12
2018-09-26T18:11:30.168Z,361.02
2018-09-26T18:13:32.407Z,361.68
2018-09-26T18:15:34.670Z,357.02
2018-09-26T18:17:36.946Z,376.62
2018-09-26T18:19:39.207Z,359.37
2018-09-26T18:21:41.479Z,369.27
2018-09-26T18:23:43.735Z,354.75
2018-09-26T18:25:45.999Z,351.00
2018-09-26T18:27:48.320Z,350.50
2018-09-26T18:29:50.570Z,348.25
2018-09-26T18:31:52.872Z,355.87
2018-09-26T18:33:55.132Z,325.65
2018-09-26T18:35:57.394Z,344.68
2018-09-26T18:37:59.656Z,352.43
2018-09-26T18:40:01.938Z,337.90
2018-09-26T18:42:04.217Z,339.60
2018-09-26T18:44:06.508Z,340.15
2018-09-26T18:46:08.765Z,329.30
2018-09-26T18:48:11.030Z,325.73
2018-09-26T18:50:13.278Z,343.30
2018-09-26T18:52:15.564Z,322.37
2018-09-26T18:54:17.826Z,318.80
2018-09-26T18:56:20.112Z,311.15
2018-09-26T18:58:22.418Z,320.90
2018-09-26T19:00:24.670Z,399.67
2018-09-26T19:02:26.952Z,388.10
2018-09-26T19:04:29.387Z,398.73
2018-09-26T19:06:31.609Z,419.28
2018-09-26T19:08:33.927Z,427.20
2018-09-26T19:10:36.180Z,423.78
2018-09-26T19:12:38.478Z,432.65
2018-09-26T19:14:40.709Z,433.72
2018-09-26T19:16:42.956Z,429.15
2018-09-26T19:18:45.232Z,419.50
2018-09-26T19:20:47.523Z,419.67
2018-09-26T19:22:49.769Z,624.90
2018-09-26T19:24:52.060Z,427.95
2018-09-26T19:26:54.311Z,427.05
2018-09-26T19:28:56.600Z,449.50
2018-09-26T19:30:58.906Z,476.25
2018-09-26T19:33:01.228Z,478.35
2018-09-26T19:35:03.465Z,486.25
2018-09-26T19:37:05.767Z,472.85
2018-09-26T19:39:08.043Z,462.75
2018-09-26T19:41:10.325Z,467.42
2018-09-26T19:43:12.617Z,520.08
2018-09-26T19:45:14.894Z,484.70
2018-09-26T19:47:17.143Z,485.93
2018-09-26T19:49:19.434Z,493.35
2018-09-26T19:51:21.722Z,520.05
2018-09-26T19:53:24.009Z,534.55
2018-09-26T19:55:26.269Z,530.85
2018-09-26T19:57:28.551Z,510.25
2018-09-26T19:59:30.819Z,512.42
2018-09-26T20:01:33.052Z,538.77
2018-09-26T20:03:35.372Z,511.38
2018-09-26T20:05:37.648Z,529.65
2018-09-26T20:07:39.941Z,512.67
2018-09-26T20:09:42.201Z,533.30
2018-09-26T20:11:45.088Z,555.33
2018-09-26T20:13:47.385Z,549.33
2018-09-26T20:15:49.654Z,550.38
2018-09-26T20:17:51.883Z,540.20
2018-09-26T20:19:54.177Z,546.12
2018-09-26T20:21:56.482Z,538.05
2018-09-26T20:23:58.754Z,537.33
2018-09-26T20:26:01.041Z,519.95
2018-09-26T20:28:03.293Z,514.15
2018-09-26T20:30:05.536Z,517.05
2018-09-26T20:32:07.849Z,509.70
2018-09-26T20:34:10.135Z,516.27
2018-09-26T20:36:12.384Z,499.05
2018-09-26T20:38:14.689Z,511.98
2018-09-26T20:40:16.960Z,505.15
2018-09-26T20:42:19.247Z,500.15
2018-09-26T20:44:21.495Z,496.53
2018-09-26T20:46:23.744Z,480.90
2018-09-26T20:48:26.041Z,488.00
2018-09-26T20:50:28.329Z,502.23
2018-09-26T20:52:30.576Z,508.85
2018-09-26T20:54:32.827Z,508.35
2018-09-26T20:56:35.098Z,530.37
2018-09-26T20:58:37.393Z,521.12
2018-09-26T21:00:39.698Z,528.48
2018-09-26T21:02:41.916Z,516.17
2018-09-26T21:04:44.160Z,538.15
2018-09-26T21:06:46.428Z,520.62
2018-09-26T21:08:48.698Z,516.50
2018-09-26T21:10:50.979Z,511.55
2018-09-26T21:12:53.294Z,498.25
2018-09-26T21:14:55.531Z,522.77
2018-09-26T21:16:57.793Z,505.75
2018-09-26T21:19:00.074Z,630.58
2018-09-26T21:21:02.354Z,519.00
2018-09-26T21:23:04.625Z,510.65
2018-09-26T21:25:06.875Z,535.20
2018-09-26T21:27:09.135Z,534.15
2018-09-26T21:29:11.407Z,531.20
2018-09-26T21:31:13.691Z,535.65
2018-09-26T21:33:15.980Z,533.72
2018-09-26T21:35:18.211Z,527.08
2018-09-26T21:37:20.468Z,543.40
2018-09-26T21:39:22.764Z,550.05
2018-09-26T21:41:25.023Z,554.53
2018-09-26T21:43:27.260Z,563.77
2018-09-26T21:45:29.543Z,578.98
2018-09-26T21:47:31.830Z,565.28
2018-09-26T21:49:34.105Z,574.45
2018-09-26T21:51:36.356Z,557.73
2018-09-26T21:53:38.664Z,568.45
2018-09-26T21:55:40.901Z,685.58
2018-09-26T21:57:43.187Z,575.92
2018-09-26T21:59:45.431Z,582.15
2018-09-26T22:01:47.675Z,630.98
2018-09-26T22:03:49.951Z,638.58
2018-09-26T22:05:52.234Z,624.10
2018-09-26T22:07:54.505Z,630.25
2018-09-26T22:09:56.758Z,616.33
2018-09-26T22:11:59.041Z,622.50
2018-09-26T22:14:01.297Z,624.30
2018-09-26T22:16:03.532Z,612.52
2018-09-26T22:18:05.819Z,607.95
2018-09-26T22:20:08.127Z,594.37
2018-09-26T22:22:10.375Z,591.52
2018-09-26T22:24:12.633Z,588.85
2018-09-26T22:26:14.924Z,585.35
2018-09-26T22:28:17.207Z,581.15
2018-09-26T22:30:19.448Z,579.72
2018-09-26T22:32:21.741Z,578.60
2018-09-26T22:34:24.000Z,565.62
2018-09-26T22:36:26.247Z,564.23
2018-09-26T22:38:28.518Z,560.35
2018-09-26T22:40:30.775Z,566.62
2018-09-26T22:42:33.012Z,558.00
2018-09-26T22:44:35.288Z,550.45
2018-09-26T22:46:37.566Z,557.23
2018-09-26T22:48:39.863Z,559.17
2018-09-26T22:50:42.091Z,553.58
2018-09-26T22:52:44.345Z,549.90
2018-09-26T22:54:46.615Z,545.00
2018-09-26T22:56:48.908Z,539.75
2018-09-26T22:58:51.181Z,541.77
2018-09-26T23:00:53.457Z,534.92
2018-09-26T23:02:55.691Z,528.80
2018-09-26T23:04:57.980Z,521.03
2018-09-26T23:07:00.251Z,529.55
2018-09-26T23:09:02.491Z,517.95
2018-09-26T23:11:04.809Z,524.40
2018-09-26T23:13:07.048Z,520.75
2018-09-26T23:15:09.315Z,520.55
2018-09-26T23:17:11.573Z,523.15
2018-09-26T23:19:13.832Z,520.10
2018-09-26T23:21:16.091Z,506.97
2018-09-26T23:23:18.336Z,505.13
2018-09-26T23:25:20.622Z,512.50
2018-09-26T23:27:22.916Z,505.20
2018-09-26T23:29:25.154Z,504.95
2018-09-26T23:31:27.405Z,499.77
2018-09-26T23:33:29.698Z,500.53
2018-09-26T23:35:31.977Z,499.02
2018-09-26T23:37:34.275Z,498.25
2018-09-26T23:39:36.508Z,488.35
2018-09-26T23:41:38.786Z,491.35
2018-09-26T23:43:41.070Z,491.08
2018-09-26T23:45:43.370Z,474.70
2018-09-26T23:47:45.613Z,478.55
2018-09-26T23:49:47.864Z,472.10
2018-09-26T23:51:50.134Z,471.55
2018-09-26T23:53:52.380Z,472.02
2018-09-26T23:55:54.646Z,478.42
2018-09-26T23:57:56.928Z,463.57
2018-09-26T23:59:59.199Z,468.52
